createdAt,value
2023-05-10T00:01:11.172Z,18.00
2023-05-10T00:03:38.313Z,19.23
2023-05-10T00:06:05.659Z,17.88
2023-05-10T00:08:32.642Z,16.60
2023-05-10T00:10:59.637Z,16.65
2023-05-10T00:13:26.659Z,17.10
2023-05-10T00:15:54.186Z,17.38
2023-05-10T00:18:21.268Z,18.73
2023-05-10T00:20:49.691Z,17.38
2023-05-10T00:23:16.776Z,17.50
2023-05-10T00:25:43.698Z,16.65
2023-05-10T00:28:11.004Z,15.25
2023-05-10T00:30:38.220Z,17.17
2023-05-10T00:33:05.208Z,17.58
2023-05-10T00:35:32.292Z,16.02
2023-05-10T00:37:59.209Z,18.48
2023-05-10T00:40:26.261Z,16.42
2023-05-10T00:42:59.291Z,16.60
2023-05-10T00:45:26.473Z,16.10
2023-05-10T00:47:56.147Z,15.57
2023-05-10T00:50:42.229Z,14.07
2023-05-10T00:53:10.118Z,15.27
2023-05-10T00:55:37.618Z,15.13
2023-05-10T00:58:05.619Z,14.38
2023-05-10T01:00:34.397Z,12.60
2023-05-10T01:03:02.244Z,14.82
2023-05-10T01:05:29.291Z,17.83
2023-05-10T01:07:58.068Z,14.98
2023-05-10T01:10:25.277Z,16.88
2023-05-10T01:12:52.460Z,13.55
2023-05-10T01:15:21.222Z,14.30
2023-05-10T01:17:49.257Z,15.20
2023-05-10T01:20:16.928Z,16.23
2023-05-10T01:22:54.144Z,14.68
2023-05-10T01:26:08.365Z,14.18
2023-05-10T01:29:04.725Z,13.35
2023-05-10T01:32:03.720Z,16.30
2023-05-10T01:35:05.387Z,14.68
2023-05-10T01:37:42.007Z,14.00
2023-05-10T01:40:20.603Z,10.15
2023-05-10T01:42:53.852Z,12.75
2023-05-10T01:45:29.825Z,10.93
2023-05-10T01:48:06.684Z,10.07
2023-05-10T01:50:35.470Z,10.73
2023-05-10T01:53:04.674Z,9.43
2023-05-10T01:55:34.872Z,10.07
2023-05-10T01:58:11.185Z,10.52
2023-05-10T02:00:43.699Z,8.80
2023-05-10T02:03:12.526Z,8.63
2023-05-10T02:05:40.619Z,9.80
2023-05-10T02:08:09.233Z,8.68
2023-05-10T02:10:38.719Z,8.35
2023-05-10T02:13:07.915Z,8.25
2023-05-10T02:15:37.023Z,9.50
2023-05-10T02:18:07.025Z,7.30
2023-05-10T02:20:35.839Z,7.78
2023-05-10T02:23:04.284Z,7.38
2023-05-10T02:25:32.865Z,7.43
2023-05-10T02:28:02.589Z,7.47
2023-05-10T02:30:32.241Z,7.30
2023-05-10T02:33:00.147Z,8.73
2023-05-10T02:35:28.415Z,7.97
2023-05-10T02:37:55.788Z,8.40
2023-05-10T02:40:26.193Z,8.38
2023-05-10T02:42:58.008Z,7.53
2023-05-10T02:45:29.200Z,8.55
2023-05-10T02:47:57.229Z,9.50
2023-05-10T02:50:28.355Z,8.40
2023-05-10T02:53:03.108Z,9.25
2023-05-10T02:55:37.504Z,8.98
2023-05-10T02:58:04.898Z,8.35
2023-05-10T03:00:32.624Z,8.93
2023-05-10T03:03:00.133Z,8.27
2023-05-10T03:05:28.407Z,9.65
2023-05-10T03:07:57.071Z,9.07
2023-05-10T03:10:29.741Z,9.73
2023-05-10T03:13:07.261Z,11.07
2023-05-10T03:16:00.243Z,8.55
2023-05-10T03:18:49.020Z,9.82
2023-05-10T03:21:18.884Z,10.10
2023-05-10T03:23:54.476Z,10.35
2023-05-10T03:26:28.381Z,8.77
2023-05-10T03:29:06.447Z,7.50
2023-05-10T03:31:34.063Z,8.38
2023-05-10T03:34:01.488Z,8.43
2023-05-10T03:36:28.493Z,6.82
2023-05-10T03:38:56.328Z,7.95
2023-05-10T03:41:23.365Z,7.68
2023-05-10T03:43:50.467Z,9.55
2023-05-10T03:46:17.455Z,9.15
2023-05-10T03:48:45.186Z,9.32
2023-05-10T03:51:12.063Z,7.90
2023-05-10T03:53:40.356Z,11.20
2023-05-10T03:56:07.638Z,8.43
2023-05-10T03:58:35.408Z,8.00
2023-05-10T04:01:02.411Z,7.60
2023-05-10T04:03:29.446Z,6.85
2023-05-10T04:06:01.723Z,6.53
2023-05-10T04:08:29.632Z,6.55
2023-05-10T04:11:11.453Z,10.05
2023-05-10T04:13:39.213Z,6.47
2023-05-10T04:16:06.605Z,6.93
2023-05-10T04:18:33.803Z,7.38
2023-05-10T04:21:00.813Z,7.50
2023-05-10T04:23:31.009Z,7.55
2023-05-10T04:26:02.595Z,6.65
2023-05-10T04:28:29.560Z,7.05
2023-05-10T04:31:09.985Z,7.60
2023-05-10T04:33:37.710Z,7.00
2023-05-10T04:36:05.305Z,6.57
2023-05-10T04:38:32.284Z,6.65
2023-05-10T04:41:09.889Z,6.95
2023-05-10T04:43:37.465Z,6.78
2023-05-10T04:46:05.136Z,7.45
2023-05-10T04:48:32.252Z,6.43
2023-05-10T04:50:59.200Z,6.35
2023-05-10T04:53:26.128Z,5.70
2023-05-10T04:55:53.134Z,6.80
2023-05-10T04:58:20.121Z,6.72
2023-05-10T05:00:47.165Z,6.97
2023-05-10T05:03:14.405Z,7.72
2023-05-10T05:05:41.395Z,7.15
2023-05-10T05:08:08.388Z,7.55
2023-05-10T05:10:35.929Z,6.78
2023-05-10T05:13:02.940Z,7.20
2023-05-10T05:15:31.539Z,43.28
2023-05-10T05:18:00.256Z,20.60
2023-05-10T05:20:28.038Z,7.22
2023-05-10T05:22:56.119Z,7.25
2023-05-10T05:25:23.363Z,7.88
2023-05-10T05:27:50.723Z,7.10
2023-05-10T05:30:18.334Z,8.00
2023-05-10T05:32:45.731Z,6.82
2023-05-10T05:35:13.242Z,6.97
2023-05-10T05:37:40.421Z,7.30
2023-05-10T05:40:08.058Z,7.47
2023-05-10T05:42:35.238Z,7.53
2023-05-10T05:45:02.193Z,9.65
2023-05-10T05:47:29.169Z,8.45
2023-05-10T05:49:56.324Z,8.02
2023-05-10T05:52:23.321Z,7.35
2023-05-10T05:54:50.421Z,9.85
2023-05-10T05:57:17.402Z,8.85
2023-05-10T05:59:45.027Z,7.85
2023-05-10T06:02:12.247Z,9.27
2023-05-10T06:04:39.262Z,7.85
2023-05-10T06:07:06.765Z,7.68
2023-05-10T06:09:33.781Z,9.40
2023-05-10T06:12:00.789Z,7.00
2023-05-10T06:14:27.739Z,8.13
2023-05-10T06:16:54.671Z,9.75
2023-05-10T06:19:21.646Z,8.45
2023-05-10T06:21:48.833Z,7.75
2023-05-10T06:24:15.849Z,8.55
2023-05-10T06:26:42.789Z,9.23
2023-05-10T06:29:09.763Z,9.02
2023-05-10T06:31:36.801Z,9.02
2023-05-10T06:34:03.850Z,10.57
2023-05-10T06:36:30.846Z,8.48
2023-05-10T06:38:57.761Z,8.02
2023-05-10T06:41:24.983Z,10.63
2023-05-10T06:43:52.117Z,10.63
2023-05-10T06:46:19.061Z,9.05
2023-05-10T06:48:46.006Z,9.82
2023-05-10T06:51:12.903Z,13.25
2023-05-10T06:53:39.947Z,10.70
2023-05-10T06:56:07.491Z,9.82
2023-05-10T06:58:34.559Z,10.55
2023-05-10T07:01:08.002Z,8.75
2023-05-10T07:03:35.116Z,8.68
2023-05-10T07:06:06.311Z,9.90
2023-05-10T07:08:33.688Z,8.65
2023-05-10T07:11:02.600Z,11.60
2023-05-10T07:13:30.869Z,14.93
2023-05-10T07:15:58.019Z,11.70
2023-05-10T07:18:25.650Z,20.65
2023-05-10T07:20:52.942Z,27.85
2023-05-10T07:23:20.308Z,9.07
2023-05-10T07:25:48.829Z,8.75
2023-05-10T07:28:17.091Z,10.48
2023-05-10T07:30:44.318Z,7.85
2023-05-10T07:33:13.238Z,8.32
2023-05-10T07:35:40.787Z,9.90
2023-05-10T07:38:07.888Z,10.45
2023-05-10T07:40:34.853Z,10.07
2023-05-10T07:43:02.714Z,11.02
2023-05-10T07:45:29.967Z,10.73
2023-05-10T07:47:56.968Z,9.75
2023-05-10T07:50:24.051Z,10.55
2023-05-10T07:52:51.064Z,10.32
2023-05-10T07:55:19.921Z,11.48
2023-05-10T07:57:47.132Z,12.23
2023-05-10T08:00:17.655Z,11.82
2023-05-10T08:02:44.827Z,12.43
2023-05-10T08:05:12.000Z,12.65
2023-05-10T08:07:39.232Z,10.35
2023-05-10T08:10:06.893Z,9.05
2023-05-10T08:12:33.838Z,9.25
2023-05-10T08:15:01.051Z,8.10
2023-05-10T08:17:28.176Z,7.60
2023-05-10T08:19:55.258Z,8.57
2023-05-10T08:22:22.930Z,11.57
2023-05-10T08:24:49.821Z,8.40
2023-05-10T08:27:16.804Z,13.02
2023-05-10T08:29:50.227Z,8.00
2023-05-10T08:32:18.272Z,10.50
2023-05-10T08:34:45.307Z,9.88
2023-05-10T08:37:14.336Z,7.88
2023-05-10T08:39:41.683Z,8.40
2023-05-10T08:42:10.141Z,10.20
2023-05-10T08:44:37.887Z,8.52
2023-05-10T08:47:10.059Z,11.13
2023-05-10T08:49:38.605Z,9.05
2023-05-10T08:52:06.914Z,10.20
2023-05-10T08:54:34.705Z,11.07
2023-05-10T08:57:02.357Z,10.55
2023-05-10T08:59:29.859Z,12.52
2023-05-10T09:02:00.477Z,11.63
2023-05-10T09:04:29.211Z,10.13
2023-05-10T09:06:56.633Z,9.65
2023-05-10T09:09:25.356Z,10.73
2023-05-10T09:11:54.467Z,9.82
2023-05-10T09:14:22.746Z,10.43
2023-05-10T09:16:49.894Z,10.43
2023-05-10T09:19:16.873Z,13.80
2023-05-10T09:21:44.544Z,11.70
2023-05-10T09:24:11.498Z,9.85
2023-05-10T09:26:50.821Z,9.98
2023-05-10T09:29:18.193Z,11.48
2023-05-10T09:31:57.203Z,8.63
2023-05-10T09:34:30.791Z,9.40
2023-05-10T09:37:02.044Z,8.63
2023-05-10T09:39:33.522Z,8.55
2023-05-10T09:42:09.883Z,7.95
2023-05-10T09:44:37.991Z,8.40
2023-05-10T09:47:05.309Z,6.95
2023-05-10T09:49:32.566Z,7.70
2023-05-10T09:52:05.133Z,6.65
2023-05-10T09:54:32.795Z,7.03
2023-05-10T09:56:59.876Z,7.10
2023-05-10T09:59:28.347Z,8.10
2023-05-10T10:02:01.596Z,7.15
2023-05-10T10:04:29.162Z,8.77
2023-05-10T10:07:04.618Z,6.78
2023-05-10T10:12:03.700Z,7.38
2023-05-10T10:14:31.132Z,6.35
2023-05-10T10:17:06.563Z,7.40
2023-05-10T10:19:38.798Z,7.78
2023-05-10T10:22:06.774Z,6.88
2023-05-10T10:24:34.232Z,6.85
2023-05-10T10:27:12.639Z,6.03
2023-05-10T10:29:51.116Z,6.40
2023-05-10T10:32:28.744Z,6.95
2023-05-10T10:34:57.163Z,6.47
2023-05-10T10:37:25.028Z,6.95
2023-05-10T10:39:51.954Z,6.40
2023-05-10T10:42:57.077Z,6.72
2023-05-10T10:45:25.351Z,6.97
2023-05-10T10:48:22.488Z,8.18
2023-05-10T10:50:57.370Z,11.85
2023-05-10T10:53:29.236Z,9.63
2023-05-10T10:56:10.974Z,6.30
2023-05-10T10:58:39.441Z,6.75
2023-05-10T11:01:18.207Z,6.63
2023-05-10T11:04:04.196Z,7.22
2023-05-10T11:09:10.203Z,6.40
2023-05-10T11:11:49.561Z,7.43
2023-05-10T11:14:22.167Z,6.60
2023-05-10T11:16:49.501Z,8.20
2023-05-10T11:19:17.811Z,8.40
2023-05-10T11:21:50.694Z,9.80
2023-05-10T11:24:20.790Z,7.03
2023-05-10T11:26:52.405Z,8.02
2023-05-10T11:29:19.797Z,7.95
2023-05-10T11:31:48.485Z,7.38
2023-05-10T11:34:34.799Z,7.15
2023-05-10T11:37:02.197Z,6.45
2023-05-10T11:39:33.040Z,7.93
2023-05-10T11:42:01.196Z,6.65
2023-05-10T11:44:32.912Z,8.07
2023-05-10T11:47:04.159Z,7.18
2023-05-10T11:49:31.342Z,8.95
2023-05-10T11:52:08.684Z,9.18
2023-05-10T11:54:38.664Z,7.50
2023-05-10T11:57:05.904Z,8.30
2023-05-10T11:59:32.936Z,8.02
2023-05-10T12:02:00.384Z,7.03
2023-05-10T12:04:30.383Z,8.27
2023-05-10T12:06:57.787Z,9.55
2023-05-10T12:09:35.916Z,7.53
2023-05-10T12:12:07.250Z,7.35
2023-05-10T12:14:37.828Z,7.43
2023-05-10T12:17:04.736Z,8.60
2023-05-10T12:19:42.132Z,8.80
2023-05-10T12:22:09.223Z,8.10
2023-05-10T12:24:37.243Z,6.63
2023-05-10T12:29:55.616Z,7.60
2023-05-10T12:32:22.521Z,7.45
2023-05-10T12:34:49.441Z,6.78
2023-05-10T12:37:16.433Z,9.02
2023-05-10T12:39:47.130Z,7.18
2023-05-10T12:42:14.078Z,7.50
2023-05-10T12:44:41.220Z,7.60
2023-05-10T12:47:08.257Z,11.25
2023-05-10T12:49:35.250Z,9.30
2023-05-10T12:52:02.464Z,9.95
2023-05-10T12:54:29.416Z,10.10
2023-05-10T12:56:56.443Z,10.55
2023-05-10T12:59:23.832Z,9.35
2023-05-10T13:01:50.891Z,10.48
2023-05-10T13:04:18.010Z,8.63
2023-05-10T13:06:44.980Z,11.10
2023-05-10T13:09:11.939Z,9.00
2023-05-10T13:11:38.936Z,9.70
2023-05-10T13:14:05.834Z,8.02
2023-05-10T13:16:33.042Z,8.43
2023-05-10T13:19:00.206Z,8.02
2023-05-10T13:21:27.619Z,8.32
2023-05-10T13:23:54.663Z,7.80
2023-05-10T13:26:22.225Z,9.15
2023-05-10T13:28:49.780Z,8.23
2023-05-10T13:31:16.822Z,7.45
2023-05-10T13:33:43.738Z,10.70
2023-05-10T13:36:10.589Z,9.95
2023-05-10T13:38:38.379Z,7.05
2023-05-10T13:41:05.596Z,8.13
2023-05-10T13:43:32.533Z,7.45
2023-05-10T13:45:59.662Z,7.35
2023-05-10T13:48:26.753Z,10.10
2023-05-10T13:50:53.778Z,7.10
2023-05-10T13:53:20.677Z,8.88
2023-05-10T13:55:48.163Z,9.52
2023-05-10T13:58:15.099Z,8.73
2023-05-10T14:00:41.921Z,10.10
2023-05-10T14:03:12.105Z,7.20
2023-05-10T14:05:39.452Z,8.13
2023-05-10T14:08:06.751Z,10.15
2023-05-10T14:10:33.678Z,9.25
2023-05-10T14:13:00.735Z,8.52
2023-05-10T14:15:27.879Z,8.43
2023-05-10T14:17:55.145Z,7.78
2023-05-10T14:20:22.162Z,9.48
2023-05-10T14:22:49.043Z,7.57
2023-05-10T14:25:16.232Z,7.70
2023-05-10T14:27:43.408Z,7.53
2023-05-10T14:30:10.795Z,10.50
2023-05-10T14:32:38.144Z,7.97
2023-05-10T14:35:06.857Z,7.82
2023-05-10T14:37:33.984Z,21.48
2023-05-10T14:40:01.307Z,10.77
2023-05-10T14:42:29.353Z,7.60
2023-05-10T14:44:56.284Z,8.85
2023-05-10T14:47:23.221Z,8.45
2023-05-10T14:49:50.099Z,9.27
2023-05-10T14:52:17.497Z,9.57
2023-05-10T14:54:44.403Z,9.82
2023-05-10T14:57:11.325Z,9.85
2023-05-10T14:59:38.309Z,12.02
2023-05-10T15:02:05.749Z,8.32
2023-05-10T15:04:33.149Z,8.68
2023-05-10T15:07:00.927Z,9.90
2023-05-10T15:09:30.807Z,10.82
2023-05-10T15:11:57.648Z,8.77
2023-05-10T15:14:24.661Z,11.02
2023-05-10T15:16:51.556Z,9.02
2023-05-10T15:19:18.409Z,10.25
2023-05-10T15:21:45.922Z,8.98
2023-05-10T15:24:12.830Z,11.02
2023-05-10T15:26:39.737Z,11.65
2023-05-10T15:29:06.686Z,9.73
2023-05-10T15:31:35.898Z,8.65
2023-05-10T15:34:03.218Z,8.48
2023-05-10T15:36:30.176Z,9.02
2023-05-10T15:38:57.144Z,9.27
2023-05-10T15:41:24.635Z,8.80
2023-05-10T15:43:51.552Z,9.18
2023-05-10T15:46:18.497Z,8.18
2023-05-10T15:48:45.464Z,8.95
2023-05-10T15:51:12.410Z,7.75
2023-05-10T15:53:46.631Z,38.08
2023-05-10T15:56:20.104Z,28.15
2023-05-10T15:58:47.169Z,9.35
2023-05-10T16:01:14.471Z,9.15
2023-05-10T16:03:41.640Z,9.27
2023-05-10T16:06:08.784Z,7.10
2023-05-10T16:08:35.917Z,6.88
2023-05-10T16:11:03.411Z,8.55
2023-05-10T16:13:30.491Z,9.75
2023-05-10T16:15:58.292Z,6.95
2023-05-10T16:18:25.992Z,7.70
2023-05-10T16:20:53.909Z,6.47
2023-05-10T16:23:20.920Z,7.97
2023-05-10T16:25:47.869Z,8.55
2023-05-10T16:28:14.815Z,8.27
2023-05-10T16:30:41.899Z,9.65
2023-05-10T16:33:09.068Z,7.55
2023-05-10T16:35:36.041Z,6.80
2023-05-10T16:38:04.028Z,6.80
2023-05-10T16:40:31.395Z,8.63
2023-05-10T16:42:58.311Z,6.93
2023-05-10T16:45:26.723Z,6.55
2023-05-10T16:47:53.922Z,8.05
2023-05-10T16:50:21.275Z,7.70
2023-05-10T16:52:48.349Z,7.45
2023-05-10T16:55:15.503Z,6.35
2023-05-10T16:57:42.685Z,7.20
2023-05-10T17:00:11.952Z,8.50
2023-05-10T17:02:39.319Z,7.68
2023-05-10T17:05:06.621Z,7.10
2023-05-10T17:07:33.566Z,7.25
2023-05-10T17:10:00.846Z,6.82
2023-05-10T17:12:28.165Z,6.78
2023-05-10T17:14:55.145Z,6.53
2023-05-10T17:17:23.550Z,7.32
2023-05-10T17:19:50.674Z,6.95
2023-05-10T17:22:17.747Z,5.93
2023-05-10T17:24:45.620Z,8.05
2023-05-10T17:27:12.650Z,24.48
2023-05-10T17:29:39.641Z,23.25
2023-05-10T17:32:09.073Z,8.75
2023-05-10T17:34:39.041Z,6.88
2023-05-10T17:37:05.975Z,7.95
2023-05-10T17:39:34.367Z,8.30
2023-05-10T17:42:01.394Z,7.68
2023-05-10T17:44:28.361Z,7.32
2023-05-10T17:46:55.399Z,8.48
2023-05-10T17:49:22.442Z,9.65
2023-05-10T17:51:49.391Z,7.25
2023-05-10T17:54:16.463Z,7.03
2023-05-10T17:56:43.418Z,6.47
2023-05-10T17:59:10.359Z,8.30
2023-05-10T18:01:37.503Z,7.18
2023-05-10T18:04:04.653Z,6.60
2023-05-10T18:06:35.585Z,7.68
2023-05-10T18:09:03.199Z,7.65
2023-05-10T18:11:30.304Z,8.52
2023-05-10T18:13:57.219Z,6.97
2023-05-10T18:16:24.124Z,7.60
2023-05-10T18:18:51.337Z,7.93
2023-05-10T18:21:18.601Z,7.60
2023-05-10T18:23:45.701Z,6.63
2023-05-10T18:26:13.202Z,7.60
2023-05-10T18:28:42.988Z,7.40
2023-05-10T18:31:09.952Z,7.70
2023-05-10T18:33:37.119Z,12.45
2023-05-10T18:36:04.788Z,7.78
2023-05-10T18:38:31.867Z,8.15
2023-05-10T18:40:58.900Z,9.15
2023-05-10T18:43:25.889Z,7.95
2023-05-10T18:45:52.969Z,9.27
2023-05-10T18:48:20.053Z,7.45
2023-05-10T18:50:47.136Z,8.45
2023-05-10T18:53:14.078Z,8.17
2023-05-10T18:55:41.135Z,8.45
2023-05-10T18:58:08.186Z,8.27
2023-05-10T19:00:35.205Z,8.52
2023-05-10T19:03:02.278Z,8.25
2023-05-10T19:05:31.674Z,10.45
2023-05-10T19:07:58.704Z,8.60
2023-05-10T19:10:26.045Z,9.35
2023-05-10T19:12:53.497Z,8.15
2023-05-10T19:15:21.760Z,8.68
2023-05-10T19:17:51.540Z,7.82
2023-05-10T19:20:19.686Z,8.45
2023-05-10T19:23:01.948Z,7.85
2023-05-10T19:25:35.950Z,8.88
2023-05-10T19:28:03.103Z,7.80
2023-05-10T19:30:31.648Z,8.75
2023-05-10T19:32:58.772Z,9.10
2023-05-10T19:35:25.801Z,8.75
2023-05-10T19:37:53.289Z,9.45
2023-05-10T19:40:21.948Z,10.65
2023-05-10T19:42:49.104Z,8.80
2023-05-10T19:45:16.635Z,9.73
2023-05-10T19:47:44.025Z,9.70
2023-05-10T19:50:12.450Z,8.88
2023-05-10T19:52:39.630Z,8.77
2023-05-10T19:55:07.242Z,9.25
2023-05-10T19:57:35.283Z,9.05
2023-05-10T20:00:04.425Z,8.95
2023-05-10T20:02:39.107Z,9.70
2023-05-10T20:05:07.677Z,10.10
2023-05-10T20:07:46.226Z,9.95
2023-05-10T20:10:13.512Z,10.77
2023-05-10T20:12:40.592Z,10.32
2023-05-10T20:15:08.025Z,9.95
2023-05-10T20:17:36.255Z,14.18
2023-05-10T20:20:04.135Z,11.35
2023-05-10T20:22:32.047Z,12.02
2023-05-10T20:25:00.219Z,9.50
2023-05-10T20:27:27.363Z,11.07
2023-05-10T20:29:55.259Z,11.70
2023-05-10T20:32:23.260Z,12.13
2023-05-10T20:34:50.393Z,10.35
2023-05-10T20:37:17.992Z,11.07
2023-05-10T20:39:45.171Z,12.63
2023-05-10T20:42:12.336Z,11.80
2023-05-10T20:44:39.336Z,12.55
2023-05-10T20:47:06.679Z,13.35
2023-05-10T20:49:35.551Z,11.95
2023-05-10T20:52:02.583Z,14.13
2023-05-10T20:54:30.206Z,12.15
2023-05-10T20:56:57.405Z,12.40
2023-05-10T20:59:24.537Z,12.55
2023-05-10T21:01:51.893Z,12.43
2023-05-10T21:04:19.186Z,13.85
2023-05-10T21:06:46.254Z,12.63
2023-05-10T21:09:13.157Z,13.00
2023-05-10T21:11:40.201Z,12.68
2023-05-10T21:14:07.850Z,12.70
2023-05-10T21:16:34.797Z,14.02
2023-05-10T21:19:01.973Z,13.13
2023-05-10T21:21:29.395Z,13.25
2023-05-10T21:23:56.321Z,11.55
2023-05-10T21:26:23.322Z,12.90
2023-05-10T21:28:50.535Z,13.45
2023-05-10T21:31:17.522Z,13.95
2023-05-10T21:33:45.676Z,12.90
2023-05-10T21:36:13.067Z,15.70
2023-05-10T21:38:40.997Z,14.45
2023-05-10T21:41:08.212Z,12.80
2023-05-10T21:43:35.280Z,17.15
2023-05-10T21:46:02.348Z,13.70
2023-05-10T21:48:29.399Z,16.58
2023-05-10T21:50:56.384Z,17.65
2023-05-10T21:53:23.378Z,15.25
2023-05-10T21:55:50.329Z,14.73
2023-05-10T21:58:17.440Z,14.35
2023-05-10T22:00:44.393Z,15.93
2023-05-10T22:03:11.480Z,14.77
2023-05-10T22:05:39.291Z,14.48
2023-05-10T22:08:09.028Z,16.05
2023-05-10T22:10:35.935Z,16.33
2023-05-10T22:13:03.203Z,14.05
2023-05-10T22:15:33.005Z,15.27
2023-05-10T22:18:01.447Z,16.10
2023-05-10T22:20:28.552Z,16.60
2023-05-10T22:22:55.923Z,16.25
2023-05-10T22:25:22.886Z,14.82
2023-05-10T22:27:49.908Z,15.70
2023-05-10T22:30:17.281Z,14.52
2023-05-10T22:32:44.714Z,14.27
2023-05-10T22:35:11.917Z,16.17
2023-05-10T22:37:38.849Z,14.15
2023-05-10T22:40:06.589Z,14.63
2023-05-10T22:42:33.977Z,14.73
2023-05-10T22:45:01.204Z,14.77
2023-05-10T22:47:28.208Z,14.38
2023-05-10T22:49:55.601Z,14.90
2023-05-10T22:52:22.681Z,16.83
2023-05-10T22:54:49.568Z,14.98
2023-05-10T22:57:17.223Z,15.93
2023-05-10T22:59:44.177Z,16.98
2023-05-10T23:02:11.427Z,16.45
2023-05-10T23:04:38.549Z,16.73
2023-05-10T23:07:05.455Z,17.23
2023-05-10T23:09:32.480Z,15.85
2023-05-10T23:11:59.395Z,15.48
2023-05-10T23:14:26.317Z,16.08
2023-05-10T23:16:53.251Z,16.80
2023-05-10T23:19:20.190Z,16.23
2023-05-10T23:21:47.128Z,17.17
2023-05-10T23:24:14.122Z,16.67
2023-05-10T23:26:41.170Z,19.35
2023-05-10T23:29:08.122Z,19.33
2023-05-10T23:31:35.072Z,18.42
2023-05-10T23:34:03.400Z,17.70
2023-05-10T23:36:31.849Z,19.65
2023-05-10T23:38:58.796Z,19.38
2023-05-10T23:41:26.421Z,19.75
2023-05-10T23:43:53.810Z,17.92
2023-05-10T23:46:20.965Z,19.10
2023-05-10T23:48:47.907Z,20.48
2023-05-10T23:51:14.842Z,20.35
2023-05-10T23:53:41.839Z,21.40
2023-05-10T23:56:08.931Z,20.73
2023-05-10T23:58:35.954Z,20.73
